sensor_id;sensor_type;location;lat;lon;timestamp;P1;durP1;ratioP1;P2;durP2;ratioP2
757;SDS011;363;48.764;9.172;2023-07-02T00:02:07;3.27;;;3.07;;
757;SDS011;363;48.764;9.172;2023-07-02T00:04:33;3.50;;;3.20;;
757;SDS011;363;48.764;9.172;2023-07-02T00:06:59;3.30;;;3.00;;
757;SDS011;363;48.764;9.172;2023-07-02T00:09:24;3.10;;;2.90;;
757;SDS011;363;48.764;9.172;2023-07-02T00:11:50;5.33;;;3.23;;
757;SDS011;363;48.764;9.172;2023-07-02T00:14:15;3.47;;;3.23;;
757;SDS011;363;48.764;9.172;2023-07-02T00:16:44;3.77;;;3.47;;
757;SDS011;363;48.764;9.172;2023-07-02T00:19:11;3.72;;;3.42;;
757;SDS011;363;48.764;9.172;2023-07-02T00:21:39;4.43;;;3.60;;
757;SDS011;363;48.764;9.172;2023-07-02T00:24:05;3.50;;;3.20;;
757;SDS011;363;48.764;9.172;2023-07-02T00:26:32;3.55;;;3.25;;
757;SDS011;363;48.764;9.172;2023-07-02T00:28:57;3.60;;;3.10;;
757;SDS011;363;48.764;9.172;2023-07-02T00:31:23;3.53;;;3.27;;
757;SDS011;363;48.764;9.172;2023-07-02T00:33:49;3.92;;;3.40;;
757;SDS011;363;48.764;9.172;2023-07-02T00:36:16;3.78;;;3.50;;
757;SDS011;363;48.764;9.172;2023-07-02T00:38:42;4.13;;;3.60;;
757;SDS011;363;48.764;9.172;2023-07-02T00:41:12;4.55;;;3.30;;
757;SDS011;363;48.764;9.172;2023-07-02T00:43:38;4.03;;;3.73;;
757;SDS011;363;48.764;9.172;2023-07-02T00:46:13;3.97;;;3.67;;
757;SDS011;363;48.764;9.172;2023-07-02T00:48:51;3.80;;;3.50;;
757;SDS011;363;48.764;9.172;2023-07-02T00:51:20;3.78;;;3.42;;
757;SDS011;363;48.764;9.172;2023-07-02T00:53:50;3.75;;;3.42;;
757;SDS011;363;48.764;9.172;2023-07-02T00:56:18;4.30;;;3.30;;
757;SDS011;363;48.764;9.172;2023-07-02T00:58:44;7.13;;;3.80;;
757;SDS011;363;48.764;9.172;2023-07-02T01:01:25;4.07;;;3.78;;
757;SDS011;363;48.764;9.172;2023-07-02T01:06:29;4.05;;;3.35;;
757;SDS011;363;48.764;9.172;2023-07-02T01:08:56;3.50;;;3.20;;
757;SDS011;363;48.764;9.172;2023-07-02T01:11:25;2.90;;;2.70;;
757;SDS011;363;48.764;9.172;2023-07-02T01:14:04;3.30;;;3.10;;
757;SDS011;363;48.764;9.172;2023-07-02T01:16:33;4.80;;;3.38;;
757;SDS011;363;48.764;9.172;2023-07-02T01:19:01;3.67;;;3.38;;
757;SDS011;363;48.764;9.172;2023-07-02T01:21:29;3.85;;;3.22;;
757;SDS011;363;48.764;9.172;2023-07-02T01:23:57;3.65;;;3.33;;
757;SDS011;363;48.764;9.172;2023-07-02T01:26:27;5.07;;;3.70;;
757;SDS011;363;48.764;9.172;2023-07-02T01:28:58;4.35;;;3.95;;
757;SDS011;363;48.764;9.172;2023-07-02T01:31:24;4.20;;;3.80;;
757;SDS011;363;48.764;9.172;2023-07-02T01:33:51;4.20;;;3.83;;
757;SDS011;363;48.764;9.172;2023-07-02T01:36:17;3.78;;;3.47;;
757;SDS011;363;48.764;9.172;2023-07-02T01:38:43;5.80;;;3.77;;
757;SDS011;363;48.764;9.172;2023-07-02T01:41:08;3.13;;;2.93;;
757;SDS011;363;48.764;9.172;2023-07-02T01:43:34;3.87;;;3.57;;
757;SDS011;363;48.764;9.172;2023-07-02T01:45:59;3.80;;;3.40;;
757;SDS011;363;48.764;9.172;2023-07-02T01:48:26;3.97;;;3.67;;
757;SDS011;363;48.764;9.172;2023-07-02T01:50:52;4.33;;;3.30;;
757;SDS011;363;48.764;9.172;2023-07-02T01:53:18;4.13;;;3.30;;
757;SDS011;363;48.764;9.172;2023-07-02T01:55:43;4.40;;;3.67;;
757;SDS011;363;48.764;9.172;2023-07-02T01:58:09;3.57;;;3.33;;
757;SDS011;363;48.764;9.172;2023-07-02T02:00:34;3.63;;;3.33;;
757;SDS011;363;48.764;9.172;2023-07-02T02:03:01;3.20;;;3.00;;
757;SDS011;363;48.764;9.172;2023-07-02T02:05:26;4.73;;;3.23;;
757;SDS011;363;48.764;9.172;2023-07-02T02:07:52;4.30;;;3.03;;
757;SDS011;363;48.764;9.172;2023-07-02T02:10:18;5.50;;;3.27;;
757;SDS011;363;48.764;9.172;2023-07-02T02:12:43;3.90;;;3.60;;
757;SDS011;363;48.764;9.172;2023-07-02T02:15:09;4.23;;;3.50;;
757;SDS011;363;48.764;9.172;2023-07-02T02:17:35;4.05;;;3.55;;
757;SDS011;363;48.764;9.172;2023-07-02T02:20:01;4.27;;;3.60;;
757;SDS011;363;48.764;9.172;2023-07-02T02:22:30;4.15;;;3.50;;
757;SDS011;363;48.764;9.172;2023-07-02T02:24:56;4.70;;;4.30;;
757;SDS011;363;48.764;9.172;2023-07-02T02:27:22;3.80;;;3.43;;
757;SDS011;363;48.764;9.172;2023-07-02T02:29:47;5.00;;;3.80;;
757;SDS011;363;48.764;9.172;2023-07-02T02:32:13;3.93;;;3.60;;
757;SDS011;363;48.764;9.172;2023-07-02T02:34:39;3.60;;;3.30;;
757;SDS011;363;48.764;9.172;2023-07-02T02:37:05;3.77;;;3.47;;
757;SDS011;363;48.764;9.172;2023-07-02T02:39:30;3.77;;;3.20;;
757;SDS011;363;48.764;9.172;2023-07-02T02:41:56;3.53;;;3.23;;
757;SDS011;363;48.764;9.172;2023-07-02T02:44:22;4.03;;;3.63;;
757;SDS011;363;48.764;9.172;2023-07-02T02:46:47;4.13;;;3.83;;
757;SDS011;363;48.764;9.172;2023-07-02T02:49:13;4.10;;;3.80;;
757;SDS011;363;48.764;9.172;2023-07-02T02:51:38;3.57;;;3.27;;
757;SDS011;363;48.764;9.172;2023-07-02T02:54:05;3.70;;;3.42;;
757;SDS011;363;48.764;9.172;2023-07-02T02:56:31;3.90;;;3.60;;
757;SDS011;363;48.764;9.172;2023-07-02T02:58:56;3.53;;;3.23;;
757;SDS011;363;48.764;9.172;2023-07-02T03:01:22;3.47;;;3.27;;
757;SDS011;363;48.764;9.172;2023-07-02T03:03:47;6.20;;;4.30;;
757;SDS011;363;48.764;9.172;2023-07-02T03:06:13;3.70;;;3.40;;
757;SDS011;363;48.764;9.172;2023-07-02T03:08:40;3.80;;;3.50;;
757;SDS011;363;48.764;9.172;2023-07-02T03:11:05;4.37;;;3.20;;
757;SDS011;363;48.764;9.172;2023-07-02T03:13:31;4.50;;;3.33;;
757;SDS011;363;48.764;9.172;2023-07-02T03:15:57;3.83;;;3.27;;
757;SDS011;363;48.764;9.172;2023-07-02T03:18:22;2.80;;;2.50;;
757;SDS011;363;48.764;9.172;2023-07-02T03:20:48;3.10;;;2.90;;
757;SDS011;363;48.764;9.172;2023-07-02T03:23:13;4.27;;;2.93;;
757;SDS011;363;48.764;9.172;2023-07-02T03:25:39;3.50;;;3.20;;
757;SDS011;363;48.764;9.172;2023-07-02T03:28:05;3.50;;;3.20;;
757;SDS011;363;48.764;9.172;2023-07-02T03:30:30;3.57;;;3.27;;
757;SDS011;363;48.764;9.172;2023-07-02T03:32:57;3.60;;;3.30;;
757;SDS011;363;48.764;9.172;2023-07-02T03:35:22;5.93;;;3.50;;
757;SDS011;363;48.764;9.172;2023-07-02T03:37:48;4.00;;;3.70;;
757;SDS011;363;48.764;9.172;2023-07-02T03:40:14;4.77;;;3.63;;
757;SDS011;363;48.764;9.172;2023-07-02T03:42:39;4.20;;;3.70;;
757;SDS011;363;48.764;9.172;2023-07-02T03:45:05;5.57;;;3.70;;
757;SDS011;363;48.764;9.172;2023-07-02T03:47:31;4.20;;;3.80;;
757;SDS011;363;48.764;9.172;2023-07-02T03:49:56;3.67;;;3.37;;
757;SDS011;363;48.764;9.172;2023-07-02T03:52:22;4.10;;;3.80;;
757;SDS011;363;48.764;9.172;2023-07-02T03:54:47;4.97;;;3.67;;
757;SDS011;363;48.764;9.172;2023-07-02T03:57:13;4.37;;;3.97;;
757;SDS011;363;48.764;9.172;2023-07-02T03:59:39;4.63;;;4.17;;
757;SDS011;363;48.764;9.172;2023-07-02T04:02:05;4.20;;;3.70;;
757;SDS011;363;48.764;9.172;2023-07-02T04:04:31;5.47;;;3.60;;
757;SDS011;363;48.764;9.172;2023-07-02T04:06:56;6.30;;;4.67;;
757;SDS011;363;48.764;9.172;2023-07-02T04:09:22;4.97;;;4.50;;
757;SDS011;363;48.764;9.172;2023-07-02T04:11:48;4.43;;;4.03;;
757;SDS011;363;48.764;9.172;2023-07-02T04:14:13;6.70;;;4.60;;
757;SDS011;363;48.764;9.172;2023-07-02T04:16:39;4.73;;;4.33;;
757;SDS011;363;48.764;9.172;2023-07-02T04:19:04;4.60;;;4.13;;
757;SDS011;363;48.764;9.172;2023-07-02T04:21:30;5.33;;;4.53;;
757;SDS011;363;48.764;9.172;2023-07-02T04:23:56;5.30;;;3.57;;
757;SDS011;363;48.764;9.172;2023-07-02T04:26:21;4.00;;;3.60;;
757;SDS011;363;48.764;9.172;2023-07-02T04:28:47;5.50;;;4.30;;
757;SDS011;363;48.764;9.172;2023-07-02T04:31:12;5.03;;;4.00;;
757;SDS011;363;48.764;9.172;2023-07-02T04:33:39;3.93;;;3.30;;
757;SDS011;363;48.764;9.172;2023-07-02T04:36:05;4.78;;;4.10;;
757;SDS011;363;48.764;9.172;2023-07-02T04:38:31;5.23;;;4.10;;
757;SDS011;363;48.764;9.172;2023-07-02T04:40:56;6.77;;;3.80;;
757;SDS011;363;48.764;9.172;2023-07-02T04:43:30;7.68;;;4.03;;
757;SDS011;363;48.764;9.172;2023-07-02T04:45:57;6.15;;;4.05;;
757;SDS011;363;48.764;9.172;2023-07-02T04:48:23;3.70;;;3.40;;
757;SDS011;363;48.764;9.172;2023-07-02T04:50:49;5.50;;;4.07;;
757;SDS011;363;48.764;9.172;2023-07-02T04:53:15;5.20;;;3.80;;
757;SDS011;363;48.764;9.172;2023-07-02T04:55:41;4.67;;;4.13;;
757;SDS011;363;48.764;9.172;2023-07-02T04:58:06;9.03;;;4.10;;
757;SDS011;363;48.764;9.172;2023-07-02T05:00:32;5.93;;;3.60;;
757;SDS011;363;48.764;9.172;2023-07-02T05:02:58;4.80;;;4.23;;
757;SDS011;363;48.764;9.172;2023-07-02T05:05:23;4.60;;;4.20;;
757;SDS011;363;48.764;9.172;2023-07-02T05:07:49;4.27;;;3.43;;
757;SDS011;363;48.764;9.172;2023-07-02T05:10:14;5.10;;;3.47;;
757;SDS011;363;48.764;9.172;2023-07-02T05:12:40;4.17;;;3.77;;
757;SDS011;363;48.764;9.172;2023-07-02T05:15:06;4.33;;;3.93;;
757;SDS011;363;48.764;9.172;2023-07-02T05:17:31;5.00;;;3.55;;
757;SDS011;363;48.764;9.172;2023-07-02T05:19:59;4.93;;;3.90;;
757;SDS011;363;48.764;9.172;2023-07-02T05:22:26;4.95;;;3.55;;
757;SDS011;363;48.764;9.172;2023-07-02T05:24:51;3.90;;;3.53;;
757;SDS011;363;48.764;9.172;2023-07-02T05:27:17;4.47;;;3.70;;
757;SDS011;363;48.764;9.172;2023-07-02T05:29:43;5.00;;;3.67;;
757;SDS011;363;48.764;9.172;2023-07-02T05:32:09;4.90;;;4.47;;
757;SDS011;363;48.764;9.172;2023-07-02T05:34:34;5.07;;;3.60;;
757;SDS011;363;48.764;9.172;2023-07-02T05:37:00;5.37;;;3.27;;
757;SDS011;363;48.764;9.172;2023-07-02T05:39:25;4.10;;;3.53;;
757;SDS011;363;48.764;9.172;2023-07-02T05:41:51;4.97;;;3.90;;
757;SDS011;363;48.764;9.172;2023-07-02T05:44:17;5.00;;;3.67;;
757;SDS011;363;48.764;9.172;2023-07-02T05:46:42;5.90;;;4.13;;
757;SDS011;363;48.764;9.172;2023-07-02T05:49:08;6.00;;;3.80;;
757;SDS011;363;48.764;9.172;2023-07-02T05:51:34;4.80;;;4.30;;
757;SDS011;363;48.764;9.172;2023-07-02T05:53:59;6.43;;;3.57;;
757;SDS011;363;48.764;9.172;2023-07-02T05:56:25;5.90;;;5.00;;
757;SDS011;363;48.764;9.172;2023-07-02T05:58:51;5.10;;;4.50;;
757;SDS011;363;48.764;9.172;2023-07-02T06:01:16;7.17;;;4.60;;
757;SDS011;363;48.764;9.172;2023-07-02T06:03:42;4.90;;;4.23;;
757;SDS011;363;48.764;9.172;2023-07-02T06:06:10;9.38;;;5.10;;
757;SDS011;363;48.764;9.172;2023-07-02T06:08:36;5.65;;;4.65;;
757;SDS011;363;48.764;9.172;2023-07-02T06:11:02;5.80;;;4.10;;
757;SDS011;363;48.764;9.172;2023-07-02T06:13:27;5.37;;;4.17;;
757;SDS011;363;48.764;9.172;2023-07-02T06:15:53;6.50;;;5.10;;
757;SDS011;363;48.764;9.172;2023-07-02T06:18:18;7.17;;;4.80;;
757;SDS011;363;48.764;9.172;2023-07-02T06:20:45;7.70;;;5.13;;
757;SDS011;363;48.764;9.172;2023-07-02T06:23:11;7.68;;;5.75;;
757;SDS011;363;48.764;9.172;2023-07-02T06:25:36;8.43;;;5.63;;
757;SDS011;363;48.764;9.172;2023-07-02T06:28:02;9.43;;;6.60;;
757;SDS011;363;48.764;9.172;2023-07-02T06:30:28;8.07;;;6.73;;
757;SDS011;363;48.764;9.172;2023-07-02T06:32:54;8.97;;;6.77;;
757;SDS011;363;48.764;9.172;2023-07-02T06:35:20;9.30;;;6.95;;
757;SDS011;363;48.764;9.172;2023-07-02T06:37:45;9.60;;;7.40;;
757;SDS011;363;48.764;9.172;2023-07-02T06:40:11;11.70;;;7.50;;
757;SDS011;363;48.764;9.172;2023-07-02T06:42:37;9.90;;;7.77;;
757;SDS011;363;48.764;9.172;2023-07-02T06:45:03;12.10;;;7.30;;
757;SDS011;363;48.764;9.172;2023-07-02T06:47:29;9.15;;;6.90;;
757;SDS011;363;48.764;9.172;2023-07-02T06:49:55;7.70;;;7.00;;
757;SDS011;363;48.764;9.172;2023-07-02T06:52:21;10.40;;;7.17;;
757;SDS011;363;48.764;9.172;2023-07-02T06:54:46;8.33;;;7.40;;
757;SDS011;363;48.764;9.172;2023-07-02T06:57:15;10.27;;;8.50;;
757;SDS011;363;48.764;9.172;2023-07-02T06:59:40;11.60;;;7.47;;
757;SDS011;363;48.764;9.172;2023-07-02T07:02:06;9.43;;;7.67;;
757;SDS011;363;48.764;9.172;2023-07-02T07:04:32;13.20;;;7.37;;
757;SDS011;363;48.764;9.172;2023-07-02T07:06:59;11.57;;;7.97;;
757;SDS011;363;48.764;9.172;2023-07-02T07:09:26;12.35;;;7.43;;
757;SDS011;363;48.764;9.172;2023-07-02T07:11:52;9.87;;;8.23;;
757;SDS011;363;48.764;9.172;2023-07-02T07:14:17;8.60;;;7.70;;
757;SDS011;363;48.764;9.172;2023-07-02T07:16:43;13.10;;;8.00;;
757;SDS011;363;48.764;9.172;2023-07-02T07:19:08;12.67;;;8.17;;
757;SDS011;363;48.764;9.172;2023-07-02T07:21:34;12.77;;;8.47;;
757;SDS011;363;48.764;9.172;2023-07-02T07:24:00;12.43;;;8.40;;
757;SDS011;363;48.764;9.172;2023-07-02T07:26:25;13.73;;;9.17;;
757;SDS011;363;48.764;9.172;2023-07-02T07:28:51;13.53;;;8.73;;
757;SDS011;363;48.764;9.172;2023-07-02T07:31:19;13.30;;;9.93;;
757;SDS011;363;48.764;9.172;2023-07-02T07:33:45;11.47;;;9.90;;
757;SDS011;363;48.764;9.172;2023-07-02T07:36:10;11.67;;;10.27;;
757;SDS011;363;48.764;9.172;2023-07-02T07:38:36;15.93;;;10.53;;
757;SDS011;363;48.764;9.172;2023-07-02T07:41:01;13.40;;;10.30;;
757;SDS011;363;48.764;9.172;2023-07-02T07:43:27;15.27;;;11.43;;
757;SDS011;363;48.764;9.172;2023-07-02T07:45:52;12.30;;;9.83;;
757;SDS011;363;48.764;9.172;2023-07-02T07:48:19;14.40;;;10.83;;
757;SDS011;363;48.764;9.172;2023-07-02T07:50:46;14.90;;;11.80;;
757;SDS011;363;48.764;9.172;2023-07-02T07:53:12;11.67;;;10.47;;
757;SDS011;363;48.764;9.172;2023-07-02T07:55:37;11.90;;;10.70;;
757;SDS011;363;48.764;9.172;2023-07-02T07:58:03;12.43;;;11.13;;
757;SDS011;363;48.764;9.172;2023-07-02T08:00:28;11.60;;;10.20;;
757;SDS011;363;48.764;9.172;2023-07-02T08:02:54;13.53;;;11.10;;
757;SDS011;363;48.764;9.172;2023-07-02T08:05:20;12.50;;;10.73;;
757;SDS011;363;48.764;9.172;2023-07-02T08:07:47;13.70;;;10.90;;
757;SDS011;363;48.764;9.172;2023-07-02T08:10:12;14.07;;;10.10;;
757;SDS011;363;48.764;9.172;2023-07-02T08:12:38;15.57;;;12.37;;
757;SDS011;363;48.764;9.172;2023-07-02T08:15:04;12.97;;;11.00;;
757;SDS011;363;48.764;9.172;2023-07-02T08:17:30;14.80;;;10.73;;
757;SDS011;363;48.764;9.172;2023-07-02T08:19:56;12.83;;;10.53;;
757;SDS011;363;48.764;9.172;2023-07-02T08:22:22;12.57;;;11.20;;
757;SDS011;363;48.764;9.172;2023-07-02T08:24:48;11.73;;;10.50;;
757;SDS011;363;48.764;9.172;2023-07-02T08:27:15;13.10;;;10.97;;
757;SDS011;363;48.764;9.172;2023-07-02T08:29:44;13.47;;;12.07;;
757;SDS011;363;48.764;9.172;2023-07-02T08:32:10;14.87;;;12.20;;
757;SDS011;363;48.764;9.172;2023-07-02T08:34:35;13.43;;;12.03;;
757;SDS011;363;48.764;9.172;2023-07-02T08:37:01;13.73;;;12.23;;
757;SDS011;363;48.764;9.172;2023-07-02T08:39:27;12.73;;;11.40;;
757;SDS011;363;48.764;9.172;2023-07-02T08:41:52;12.53;;;11.20;;
757;SDS011;363;48.764;9.172;2023-07-02T08:44:19;13.00;;;11.50;;
757;SDS011;363;48.764;9.172;2023-07-02T08:46:46;13.70;;;11.30;;
757;SDS011;363;48.764;9.172;2023-07-02T08:49:15;14.43;;;10.80;;
757;SDS011;363;48.764;9.172;2023-07-02T08:51:42;13.00;;;11.80;;
757;SDS011;363;48.764;9.172;2023-07-02T08:54:09;14.40;;;12.10;;
757;SDS011;363;48.764;9.172;2023-07-02T08:56:35;15.87;;;12.23;;
757;SDS011;363;48.764;9.172;2023-07-02T08:59:01;11.63;;;10.43;;
757;SDS011;363;48.764;9.172;2023-07-02T09:01:26;16.03;;;9.83;;
757;SDS011;363;48.764;9.172;2023-07-02T09:03:57;11.83;;;10.13;;
757;SDS011;363;48.764;9.172;2023-07-02T09:06:25;11.80;;;10.30;;
757;SDS011;363;48.764;9.172;2023-07-02T09:08:50;12.27;;;10.00;;
757;SDS011;363;48.764;9.172;2023-07-02T09:11:16;12.70;;;10.20;;
757;SDS011;363;48.764;9.172;2023-07-02T09:13:49;11.13;;;10.03;;
757;SDS011;363;48.764;9.172;2023-07-02T09:21:43;11.87;;;10.20;;
757;SDS011;363;48.764;9.172;2023-07-02T09:24:21;11.27;;;10.10;;
757;SDS011;363;48.764;9.172;2023-07-02T09:26:51;10.93;;;9.83;;
757;SDS011;363;48.764;9.172;2023-07-02T09:29:18;10.97;;;9.87;;
757;SDS011;363;48.764;9.172;2023-07-02T09:31:53;10.77;;;9.43;;
757;SDS011;363;48.764;9.172;2023-07-02T09:34:20;11.27;;;10.20;;
757;SDS011;363;48.764;9.172;2023-07-02T09:36:55;12.00;;;9.87;;
757;SDS011;363;48.764;9.172;2023-07-02T09:39:28;11.40;;;10.20;;
757;SDS011;363;48.764;9.172;2023-07-02T09:41:55;10.37;;;9.27;;
757;SDS011;363;48.764;9.172;2023-07-02T09:44:25;11.17;;;10.00;;
757;SDS011;363;48.764;9.172;2023-07-02T09:47:04;11.73;;;10.07;;
757;SDS011;363;48.764;9.172;2023-07-02T09:49:32;10.60;;;9.60;;
757;SDS011;363;48.764;9.172;2023-07-02T09:52:08;12.17;;;9.90;;
757;SDS011;363;48.764;9.172;2023-07-02T09:54:35;10.47;;;9.30;;
757;SDS011;363;48.764;9.172;2023-07-02T09:57:01;10.70;;;9.50;;
757;SDS011;363;48.764;9.172;2023-07-02T09:59:28;10.40;;;9.40;;
757;SDS011;363;48.764;9.172;2023-07-02T10:01:54;12.03;;;10.77;;
757;SDS011;363;48.764;9.172;2023-07-02T10:04:20;10.90;;;9.90;;
757;SDS011;363;48.764;9.172;2023-07-02T10:06:57;10.60;;;9.60;;
757;SDS011;363;48.764;9.172;2023-07-02T10:09:36;11.60;;;10.40;;
757;SDS011;363;48.764;9.172;2023-07-02T10:14:42;11.23;;;10.10;;
757;SDS011;363;48.764;9.172;2023-07-02T10:17:09;11.77;;;10.57;;
757;SDS011;363;48.764;9.172;2023-07-02T10:19:35;15.97;;;10.80;;
757;SDS011;363;48.764;9.172;2023-07-02T10:22:04;12.97;;;11.53;;
757;SDS011;363;48.764;9.172;2023-07-02T10:24:32;12.73;;;11.43;;
757;SDS011;363;48.764;9.172;2023-07-02T10:26:59;12.53;;;10.93;;
757;SDS011;363;48.764;9.172;2023-07-02T10:29:26;12.97;;;11.57;;
757;SDS011;363;48.764;9.172;2023-07-02T10:31:53;13.63;;;12.30;;
757;SDS011;363;48.764;9.172;2023-07-02T10:34:33;14.10;;;12.70;;
757;SDS011;363;48.764;9.172;2023-07-02T10:37:00;14.47;;;12.73;;
757;SDS011;363;48.764;9.172;2023-07-02T10:39:28;14.87;;;13.27;;
757;SDS011;363;48.764;9.172;2023-07-02T10:42:06;14.83;;;12.60;;
757;SDS011;363;48.764;9.172;2023-07-02T10:44:33;16.60;;;11.50;;
757;SDS011;363;48.764;9.172;2023-07-02T10:46:59;13.00;;;11.60;;
757;SDS011;363;48.764;9.172;2023-07-02T10:49:32;12.00;;;10.70;;
757;SDS011;363;48.764;9.172;2023-07-02T10:52:01;13.67;;;12.27;;
757;SDS011;363;48.764;9.172;2023-07-02T10:57:23;15.90;;;12.57;;
757;SDS011;363;48.764;9.172;2023-07-02T10:59:49;13.63;;;12.10;;
757;SDS011;363;48.764;9.172;2023-07-02T11:02:15;12.93;;;11.53;;
757;SDS011;363;48.764;9.172;2023-07-02T11:04:41;13.33;;;11.93;;
757;SDS011;363;48.764;9.172;2023-07-02T11:07:06;13.00;;;11.50;;
757;SDS011;363;48.764;9.172;2023-07-02T11:09:32;12.53;;;11.20;;
757;SDS011;363;48.764;9.172;2023-07-02T11:11:58;18.03;;;12.03;;
757;SDS011;363;48.764;9.172;2023-07-02T11:14:31;13.13;;;11.53;;
757;SDS011;363;48.764;9.172;2023-07-02T11:17:04;13.73;;;11.43;;
757;SDS011;363;48.764;9.172;2023-07-02T11:19:32;12.87;;;11.50;;
757;SDS011;363;48.764;9.172;2023-07-02T11:21:58;15.57;;;12.30;;
757;SDS011;363;48.764;9.172;2023-07-02T11:24:28;13.97;;;11.27;;
757;SDS011;363;48.764;9.172;2023-07-02T11:26:58;13.37;;;11.70;;
757;SDS011;363;48.764;9.172;2023-07-02T11:29:25;12.73;;;10.57;;
757;SDS011;363;48.764;9.172;2023-07-02T11:31:50;13.87;;;11.07;;
757;SDS011;363;48.764;9.172;2023-07-02T11:34:17;12.30;;;10.97;;
757;SDS011;363;48.764;9.172;2023-07-02T11:36:46;13.70;;;11.47;;
757;SDS011;363;48.764;9.172;2023-07-02T11:39:12;13.10;;;11.70;;
757;SDS011;363;48.764;9.172;2023-07-02T11:41:40;13.83;;;10.77;;
757;SDS011;363;48.764;9.172;2023-07-02T11:44:09;12.63;;;11.40;;
757;SDS011;363;48.764;9.172;2023-07-02T11:46:35;11.80;;;10.67;;
757;SDS011;363;48.764;9.172;2023-07-02T11:49:01;13.80;;;10.37;;
757;SDS011;363;48.764;9.172;2023-07-02T11:51:29;11.37;;;10.27;;
757;SDS011;363;48.764;9.172;2023-07-02T11:53:55;12.60;;;10.47;;
757;SDS011;363;48.764;9.172;2023-07-02T11:56:21;12.63;;;11.33;;
757;SDS011;363;48.764;9.172;2023-07-02T11:58:47;14.20;;;11.97;;
757;SDS011;363;48.764;9.172;2023-07-02T12:01:12;14.90;;;11.70;;
757;SDS011;363;48.764;9.172;2023-07-02T12:03:38;13.87;;;11.43;;
757;SDS011;363;48.764;9.172;2023-07-02T12:06:04;12.07;;;10.83;;
757;SDS011;363;48.764;9.172;2023-07-02T12:08:30;12.87;;;11.47;;
757;SDS011;363;48.764;9.172;2023-07-02T12:10:55;12.70;;;10.97;;
757;SDS011;363;48.764;9.172;2023-07-02T12:13:21;14.47;;;12.87;;
757;SDS011;363;48.764;9.172;2023-07-02T12:15:47;14.83;;;11.80;;
757;SDS011;363;48.764;9.172;2023-07-02T12:18:13;12.67;;;11.30;;
757;SDS011;363;48.764;9.172;2023-07-02T12:20:41;13.20;;;10.83;;
757;SDS011;363;48.764;9.172;2023-07-02T12:23:07;14.30;;;11.77;;
757;SDS011;363;48.764;9.172;2023-07-02T12:25:32;13.27;;;11.73;;
757;SDS011;363;48.764;9.172;2023-07-02T12:27:58;16.00;;;11.67;;
757;SDS011;363;48.764;9.172;2023-07-02T12:30:24;14.03;;;12.53;;
757;SDS011;363;48.764;9.172;2023-07-02T12:32:49;13.27;;;11.47;;
757;SDS011;363;48.764;9.172;2023-07-02T12:35:15;14.17;;;11.97;;
757;SDS011;363;48.764;9.172;2023-07-02T12:37:47;11.90;;;10.57;;
757;SDS011;363;48.764;9.172;2023-07-02T12:40:14;12.80;;;11.40;;
757;SDS011;363;48.764;9.172;2023-07-02T12:42:41;11.60;;;10.40;;
757;SDS011;363;48.764;9.172;2023-07-02T12:45:08;13.10;;;11.47;;
757;SDS011;363;48.764;9.172;2023-07-02T12:47:34;13.33;;;11.50;;
757;SDS011;363;48.764;9.172;2023-07-02T12:50:00;12.90;;;11.60;;
757;SDS011;363;48.764;9.172;2023-07-02T12:52:27;14.57;;;11.77;;
757;SDS011;363;48.764;9.172;2023-07-02T12:54:53;13.53;;;11.73;;
757;SDS011;363;48.764;9.172;2023-07-02T12:57:19;15.00;;;11.87;;
757;SDS011;363;48.764;9.172;2023-07-02T12:59:45;19.27;;;11.83;;
757;SDS011;363;48.764;9.172;2023-07-02T13:02:10;12.53;;;11.00;;
757;SDS011;363;48.764;9.172;2023-07-02T13:04:36;11.83;;;10.63;;
757;SDS011;363;48.764;9.172;2023-07-02T13:07:02;12.47;;;10.70;;
757;SDS011;363;48.764;9.172;2023-07-02T13:09:28;12.60;;;10.50;;
757;SDS011;363;48.764;9.172;2023-07-02T13:11:54;12.33;;;11.00;;
757;SDS011;363;48.764;9.172;2023-07-02T13:14:19;13.83;;;10.77;;
757;SDS011;363;48.764;9.172;2023-07-02T13:16:45;14.23;;;12.87;;
757;SDS011;363;48.764;9.172;2023-07-02T13:19:11;12.70;;;11.03;;
757;SDS011;363;48.764;9.172;2023-07-02T13:21:38;14.20;;;12.70;;
757;SDS011;363;48.764;9.172;2023-07-02T13:24:03;14.80;;;12.73;;
757;SDS011;363;48.764;9.172;2023-07-02T13:26:29;12.17;;;10.40;;
757;SDS011;363;48.764;9.172;2023-07-02T13:28:55;14.67;;;13.10;;
757;SDS011;363;48.764;9.172;2023-07-02T13:31:21;12.87;;;11.17;;
757;SDS011;363;48.764;9.172;2023-07-02T13:33:46;18.60;;;13.40;;
757;SDS011;363;48.764;9.172;2023-07-02T13:36:13;14.40;;;11.20;;
757;SDS011;363;48.764;9.172;2023-07-02T13:38:39;12.97;;;11.37;;
757;SDS011;363;48.764;9.172;2023-07-02T13:41:04;12.70;;;11.30;;
757;SDS011;363;48.764;9.172;2023-07-02T13:43:30;13.80;;;11.20;;
757;SDS011;363;48.764;9.172;2023-07-02T13:45:56;12.40;;;10.70;;
757;SDS011;363;48.764;9.172;2023-07-02T13:48:21;13.63;;;12.13;;
757;SDS011;363;48.764;9.172;2023-07-02T13:50:47;11.97;;;10.73;;
757;SDS011;363;48.764;9.172;2023-07-02T13:53:13;14.00;;;11.10;;
757;SDS011;363;48.764;9.172;2023-07-02T13:55:38;12.70;;;11.40;;
757;SDS011;363;48.764;9.172;2023-07-02T13:58:04;13.80;;;10.93;;
757;SDS011;363;48.764;9.172;2023-07-02T14:00:30;11.63;;;10.40;;
757;SDS011;363;48.764;9.172;2023-07-02T14:02:55;12.60;;;11.03;;
757;SDS011;363;48.764;9.172;2023-07-02T14:05:22;13.70;;;10.70;;
757;SDS011;363;48.764;9.172;2023-07-02T14:07:48;13.40;;;11.80;;
757;SDS011;363;48.764;9.172;2023-07-02T14:10:14;11.63;;;10.43;;
757;SDS011;363;48.764;9.172;2023-07-02T14:12:40;15.93;;;11.50;;
757;SDS011;363;48.764;9.172;2023-07-02T14:15:06;13.90;;;11.17;;
757;SDS011;363;48.764;9.172;2023-07-02T14:17:32;15.23;;;10.30;;
757;SDS011;363;48.764;9.172;2023-07-02T14:19:58;16.87;;;15.13;;
757;SDS011;363;48.764;9.172;2023-07-02T14:22:24;14.40;;;11.90;;
757;SDS011;363;48.764;9.172;2023-07-02T14:24:50;14.30;;;12.23;;
757;SDS011;363;48.764;9.172;2023-07-02T14:27:15;13.73;;;11.90;;
757;SDS011;363;48.764;9.172;2023-07-02T14:29:41;16.70;;;12.63;;
757;SDS011;363;48.764;9.172;2023-07-02T14:32:07;13.70;;;10.83;;
757;SDS011;363;48.764;9.172;2023-07-02T14:34:33;13.13;;;10.63;;
757;SDS011;363;48.764;9.172;2023-07-02T14:36:58;14.30;;;12.17;;
757;SDS011;363;48.764;9.172;2023-07-02T14:39:24;12.50;;;11.20;;
757;SDS011;363;48.764;9.172;2023-07-02T14:41:50;13.73;;;11.43;;
757;SDS011;363;48.764;9.172;2023-07-02T14:44:16;15.03;;;11.80;;
757;SDS011;363;48.764;9.172;2023-07-02T14:46:42;12.43;;;11.20;;
757;SDS011;363;48.764;9.172;2023-07-02T14:49:08;12.30;;;11.00;;
757;SDS011;363;48.764;9.172;2023-07-02T14:51:34;12.43;;;10.70;;
757;SDS011;363;48.764;9.172;2023-07-02T14:54:00;15.33;;;11.40;;
757;SDS011;363;48.764;9.172;2023-07-02T14:56:28;13.63;;;12.23;;
757;SDS011;363;48.764;9.172;2023-07-02T14:58:57;12.93;;;11.50;;
757;SDS011;363;48.764;9.172;2023-07-02T15:01:22;12.70;;;11.07;;
757;SDS011;363;48.764;9.172;2023-07-02T15:03:48;13.20;;;11.73;;
757;SDS011;363;48.764;9.172;2023-07-02T15:06:15;11.70;;;10.27;;
757;SDS011;363;48.764;9.172;2023-07-02T15:08:42;14.83;;;13.17;;
757;SDS011;363;48.764;9.172;2023-07-02T15:11:09;14.67;;;11.67;;
757;SDS011;363;48.764;9.172;2023-07-02T15:13:36;12.90;;;11.27;;
757;SDS011;363;48.764;9.172;2023-07-02T15:16:02;13.73;;;11.77;;
757;SDS011;363;48.764;9.172;2023-07-02T15:18:28;12.40;;;11.10;;
757;SDS011;363;48.764;9.172;2023-07-02T15:20:54;12.20;;;11.00;;
757;SDS011;363;48.764;9.172;2023-07-02T15:23:21;14.33;;;11.93;;
757;SDS011;363;48.764;9.172;2023-07-02T15:25:54;16.47;;;11.97;;
757;SDS011;363;48.764;9.172;2023-07-02T15:28:22;13.73;;;12.27;;
757;SDS011;363;48.764;9.172;2023-07-02T15:30:52;14.77;;;10.93;;
757;SDS011;363;48.764;9.172;2023-07-02T15:33:19;12.33;;;11.03;;
757;SDS011;363;48.764;9.172;2023-07-02T15:35:45;13.23;;;11.47;;
757;SDS011;363;48.764;9.172;2023-07-02T15:38:11;12.97;;;11.67;;
757;SDS011;363;48.764;9.172;2023-07-02T15:40:36;17.43;;;13.47;;